sensor_id;sensor_type;location;lat;lon;timestamp;temperature;humidity
43808;DHT22;29438;50.664;10.098;2022-10-31T00:00:22;10.10;87.80
43808;DHT22;29438;50.664;10.098;2022-10-31T00:02:47;10.00;87.90
43808;DHT22;29438;50.664;10.098;2022-10-31T00:05:13;10.30;88.60
43808;DHT22;29438;50.664;10.098;2022-10-31T00:07:39;10.30;88.00
43808;DHT22;29438;50.664;10.098;2022-10-31T00:10:05;10.30;88.10
43808;DHT22;29438;50.664;10.098;2022-10-31T00:12:31;10.20;87.80
43808;DHT22;29438;50.664;10.098;2022-10-31T00:14:56;10.20;88.10
43808;DHT22;29438;50.664;10.098;2022-10-31T00:17:22;10.20;88.10
43808;DHT22;29438;50.664;10.098;2022-10-31T00:19:48;10.20;88.50
43808;DHT22;29438;50.664;10.098;2022-10-31T00:22:13;10.10;88.40
43808;DHT22;29438;50.664;10.098;2022-10-31T00:24:39;10.00;88.80
43808;DHT22;29438;50.664;10.098;2022-10-31T00:27:04;10.00;89.00
43808;DHT22;29438;50.664;10.098;2022-10-31T00:29:30;9.90;89.10
43808;DHT22;29438;50.664;10.098;2022-10-31T00:31:55;9.80;89.30
43808;DHT22;29438;50.664;10.098;2022-10-31T00:34:21;9.80;89.60
43808;DHT22;29438;50.664;10.098;2022-10-31T00:36:46;9.70;89.70
43808;DHT22;29438;50.664;10.098;2022-10-31T00:39:12;9.80;90.00
43808;DHT22;29438;50.664;10.098;2022-10-31T00:41:37;9.90;90.10
43808;DHT22;29438;50.664;10.098;2022-10-31T00:44:03;9.90;90.00
43808;DHT22;29438;50.664;10.098;2022-10-31T00:46:28;9.80;90.00
43808;DHT22;29438;50.664;10.098;2022-10-31T00:48:54;9.80;90.10
43808;DHT22;29438;50.664;10.098;2022-10-31T00:51:19;9.90;90.20
43808;DHT22;29438;50.664;10.098;2022-10-31T00:53:45;10.00;90.50
43808;DHT22;29438;50.664;10.098;2022-10-31T00:56:11;9.90;90.30
43808;DHT22;29438;50.664;10.098;2022-10-31T00:58:36;9.80;90.30
43808;DHT22;29438;50.664;10.098;2022-10-31T01:01:03;9.70;90.50
43808;DHT22;29438;50.664;10.098;2022-10-31T01:03:30;9.70;90.80
43808;DHT22;29438;50.664;10.098;2022-10-31T01:06:05;9.70;90.80
43808;DHT22;29438;50.664;10.098;2022-10-31T01:08:32;9.70;90.80
43808;DHT22;29438;50.664;10.098;2022-10-31T01:11:19;9.50;90.90
43808;DHT22;29438;50.664;10.098;2022-10-31T01:13:46;9.60;91.20
43808;DHT22;29438;50.664;10.098;2022-10-31T01:16:15;9.60;91.10
43808;DHT22;29438;50.664;10.098;2022-10-31T01:18:41;9.50;91.10
43808;DHT22;29438;50.664;10.098;2022-10-31T01:21:16;9.30;91.10
43808;DHT22;29438;50.664;10.098;2022-10-31T01:23:42;9.20;91.20
43808;DHT22;29438;50.664;10.098;2022-10-31T01:26:22;9.30;91.30
43808;DHT22;29438;50.664;10.098;2022-10-31T01:28:56;9.10;91.40
43808;DHT22;29438;50.664;10.098;2022-10-31T01:31:24;9.00;91.40
43808;DHT22;29438;50.664;10.098;2022-10-31T01:33:50;9.00;91.60
43808;DHT22;29438;50.664;10.098;2022-10-31T01:36:20;9.00;91.70
43808;DHT22;29438;50.664;10.098;2022-10-31T01:38:47;9.00;91.90
43808;DHT22;29438;50.664;10.098;2022-10-31T01:41:16;9.00;92.10
43808;DHT22;29438;50.664;10.098;2022-10-31T01:43:56;9.10;92.30
43808;DHT22;29438;50.664;10.098;2022-10-31T01:48:53;9.10;92.30
43808;DHT22;29438;50.664;10.098;2022-10-31T01:51:23;9.10;92.30
43808;DHT22;29438;50.664;10.098;2022-10-31T01:53:50;9.10;92.40
43808;DHT22;29438;50.664;10.098;2022-10-31T01:56:18;9.10;92.30
43808;DHT22;29438;50.664;10.098;2022-10-31T01:58:45;9.00;92.30
43808;DHT22;29438;50.664;10.098;2022-10-31T02:01:13;8.90;92.30
43808;DHT22;29438;50.664;10.098;2022-10-31T02:03:39;8.80;92.40
43808;DHT22;29438;50.664;10.098;2022-10-31T02:06:11;8.90;92.60
43808;DHT22;29438;50.664;10.098;2022-10-31T02:08:39;8.90;92.60
43808;DHT22;29438;50.664;10.098;2022-10-31T02:11:06;8.90;92.70
43808;DHT22;29438;50.664;10.098;2022-10-31T02:13:33;8.90;92.70
43808;DHT22;29438;50.664;10.098;2022-10-31T02:15:59;8.90;92.70
43808;DHT22;29438;50.664;10.098;2022-10-31T02:18:27;9.00;92.70
43808;DHT22;29438;50.664;10.098;2022-10-31T02:21:11;8.90;92.60
43808;DHT22;29438;50.664;10.098;2022-10-31T02:26:49;8.60;92.60
43808;DHT22;29438;50.664;10.098;2022-10-31T02:29:46;8.60;92.70
43808;DHT22;29438;50.664;10.098;2022-10-31T02:41:08;8.80;93.00
43808;DHT22;29438;50.664;10.098;2022-10-31T02:43:43;8.60;93.00
43808;DHT22;29438;50.664;10.098;2022-10-31T02:46:25;8.50;93.00
43808;DHT22;29438;50.664;10.098;2022-10-31T02:48:55;8.40;93.00
43808;DHT22;29438;50.664;10.098;2022-10-31T02:51:22;8.50;93.10
43808;DHT22;29438;50.664;10.098;2022-10-31T02:53:48;8.40;93.10
43808;DHT22;29438;50.664;10.098;2022-10-31T02:56:18;8.40;93.30
43808;DHT22;29438;50.664;10.098;2022-10-31T02:59:10;8.40;93.30
43808;DHT22;29438;50.664;10.098;2022-10-31T03:01:45;8.30;93.20
43808;DHT22;29438;50.664;10.098;2022-10-31T03:04:31;8.30;93.20
43808;DHT22;29438;50.664;10.098;2022-10-31T03:07:03;8.30;93.30
43808;DHT22;29438;50.664;10.098;2022-10-31T03:20:29;8.50;93.80
43808;DHT22;29438;50.664;10.098;2022-10-31T03:22:59;8.70;93.80
43808;DHT22;29438;50.664;10.098;2022-10-31T03:25:26;8.70;93.70
43808;DHT22;29438;50.664;10.098;2022-10-31T03:27:52;8.60;93.60
43808;DHT22;29438;50.664;10.098;2022-10-31T03:30:19;8.50;93.60
43808;DHT22;29438;50.664;10.098;2022-10-31T03:32:51;8.50;93.60
43808;DHT22;29438;50.664;10.098;2022-10-31T03:35:20;8.60;93.70
43808;DHT22;29438;50.664;10.098;2022-10-31T03:37:48;8.60;93.70
43808;DHT22;29438;50.664;10.098;2022-10-31T03:40:16;8.60;93.80
43808;DHT22;29438;50.664;10.098;2022-10-31T03:42:46;8.60;93.80
43808;DHT22;29438;50.664;10.098;2022-10-31T03:45:21;8.70;93.90
43808;DHT22;29438;50.664;10.098;2022-10-31T03:47:48;8.70;93.90
43808;DHT22;29438;50.664;10.098;2022-10-31T03:50:15;8.70;93.90
43808;DHT22;29438;50.664;10.098;2022-10-31T03:53:04;8.60;93.90
43808;DHT22;29438;50.664;10.098;2022-10-31T03:58:10;8.50;93.80
43808;DHT22;29438;50.664;10.098;2022-10-31T04:00:40;8.40;93.80
43808;DHT22;29438;50.664;10.098;2022-10-31T04:03:11;8.30;93.80
43808;DHT22;29438;50.664;10.098;2022-10-31T04:05:37;8.30;93.70
43808;DHT22;29438;50.664;10.098;2022-10-31T04:08:07;8.20;93.90
43808;DHT22;29438;50.664;10.098;2022-10-31T04:10:36;8.20;93.80
43808;DHT22;29438;50.664;10.098;2022-10-31T04:13:12;8.10;93.80
43808;DHT22;29438;50.664;10.098;2022-10-31T04:15:38;8.00;93.90
43808;DHT22;29438;50.664;10.098;2022-10-31T04:18:05;8.20;94.00
43808;DHT22;29438;50.664;10.098;2022-10-31T04:20:33;8.20;94.00
43808;DHT22;29438;50.664;10.098;2022-10-31T04:23:00;8.20;94.10
43808;DHT22;29438;50.664;10.098;2022-10-31T04:25:26;8.30;94.10
43808;DHT22;29438;50.664;10.098;2022-10-31T04:27:51;8.20;94.10
43808;DHT22;29438;50.664;10.098;2022-10-31T04:30:17;8.20;94.20
43808;DHT22;29438;50.664;10.098;2022-10-31T04:32:42;8.20;94.20
43808;DHT22;29438;50.664;10.098;2022-10-31T04:35:08;8.20;94.20
43808;DHT22;29438;50.664;10.098;2022-10-31T04:37:34;8.20;94.20
43808;DHT22;29438;50.664;10.098;2022-10-31T04:39:59;8.20;94.20
43808;DHT22;29438;50.664;10.098;2022-10-31T04:42:25;8.20;94.20
43808;DHT22;29438;50.664;10.098;2022-10-31T04:44:50;8.20;94.20
43808;DHT22;29438;50.664;10.098;2022-10-31T04:47:16;8.10;94.20
43808;DHT22;29438;50.664;10.098;2022-10-31T04:49:41;8.10;94.20
43808;DHT22;29438;50.664;10.098;2022-10-31T04:52:07;8.10;94.30
43808;DHT22;29438;50.664;10.098;2022-10-31T04:54:33;8.20;94.30
43808;DHT22;29438;50.664;10.098;2022-10-31T04:56:59;8.20;94.30
43808;DHT22;29438;50.664;10.098;2022-10-31T04:59:27;8.20;94.40
43808;DHT22;29438;50.664;10.098;2022-10-31T05:01:53;8.20;94.50
43808;DHT22;29438;50.664;10.098;2022-10-31T05:04:18;8.20;94.50
43808;DHT22;29438;50.664;10.098;2022-10-31T05:06:44;8.20;94.50
43808;DHT22;29438;50.664;10.098;2022-10-31T05:09:09;8.30;94.50
43808;DHT22;29438;50.664;10.098;2022-10-31T05:11:35;8.30;94.50
43808;DHT22;29438;50.664;10.098;2022-10-31T05:14:00;8.30;94.50
43808;DHT22;29438;50.664;10.098;2022-10-31T05:16:26;8.20;94.40
43808;DHT22;29438;50.664;10.098;2022-10-31T05:18:51;8.20;94.40
43808;DHT22;29438;50.664;10.098;2022-10-31T05:21:17;8.10;94.30
43808;DHT22;29438;50.664;10.098;2022-10-31T05:23:42;8.00;94.30
43808;DHT22;29438;50.664;10.098;2022-10-31T05:26:08;8.00;94.30
43808;DHT22;29438;50.664;10.098;2022-10-31T05:28:33;7.90;94.30
43808;DHT22;29438;50.664;10.098;2022-10-31T05:30:59;7.90;94.30
43808;DHT22;29438;50.664;10.098;2022-10-31T05:33:24;7.80;94.30
43808;DHT22;29438;50.664;10.098;2022-10-31T05:35:50;7.70;94.30
43808;DHT22;29438;50.664;10.098;2022-10-31T05:38:16;7.70;94.30
43808;DHT22;29438;50.664;10.098;2022-10-31T05:40:41;7.70;94.30
43808;DHT22;29438;50.664;10.098;2022-10-31T05:43:07;7.70;94.40
43808;DHT22;29438;50.664;10.098;2022-10-31T05:45:32;7.70;94.40
43808;DHT22;29438;50.664;10.098;2022-10-31T05:47:59;7.70;94.40
43808;DHT22;29438;50.664;10.098;2022-10-31T05:50:27;7.60;94.40
43808;DHT22;29438;50.664;10.098;2022-10-31T05:53:04;7.50;94.40
43808;DHT22;29438;50.664;10.098;2022-10-31T05:55:30;7.60;94.40
43808;DHT22;29438;50.664;10.098;2022-10-31T05:57:56;7.50;94.50
43808;DHT22;29438;50.664;10.098;2022-10-31T06:00:24;7.50;94.50
43808;DHT22;29438;50.664;10.098;2022-10-31T06:03:00;7.50;94.60
43808;DHT22;29438;50.664;10.098;2022-10-31T06:05:26;7.60;94.60
43808;DHT22;29438;50.664;10.098;2022-10-31T06:07:52;7.60;94.60
43808;DHT22;29438;50.664;10.098;2022-10-31T06:10:18;7.60;94.60
43808;DHT22;29438;50.664;10.098;2022-10-31T06:12:46;7.50;94.60
43808;DHT22;29438;50.664;10.098;2022-10-31T06:15:13;7.60;94.60
43808;DHT22;29438;50.664;10.098;2022-10-31T06:17:38;7.60;94.60
43808;DHT22;29438;50.664;10.098;2022-10-31T06:20:05;7.50;94.70
43808;DHT22;29438;50.664;10.098;2022-10-31T06:22:30;7.50;94.70
43808;DHT22;29438;50.664;10.098;2022-10-31T06:24:56;7.50;94.70
43808;DHT22;29438;50.664;10.098;2022-10-31T06:27:22;7.60;94.70
43808;DHT22;29438;50.664;10.098;2022-10-31T06:29:47;7.60;94.80
43808;DHT22;29438;50.664;10.098;2022-10-31T06:32:14;7.60;94.80
43808;DHT22;29438;50.664;10.098;2022-10-31T06:34:40;7.70;94.90
43808;DHT22;29438;50.664;10.098;2022-10-31T06:37:10;7.80;95.00
43808;DHT22;29438;50.664;10.098;2022-10-31T06:39:36;7.90;95.00
43808;DHT22;29438;50.664;10.098;2022-10-31T06:42:03;8.00;95.00
43808;DHT22;29438;50.664;10.098;2022-10-31T06:44:30;8.20;95.00
43808;DHT22;29438;50.664;10.098;2022-10-31T06:46:55;8.20;95.00
43808;DHT22;29438;50.664;10.098;2022-10-31T06:49:21;8.30;95.00
43808;DHT22;29438;50.664;10.098;2022-10-31T06:51:48;8.40;95.00
43808;DHT22;29438;50.664;10.098;2022-10-31T06:54:14;8.50;95.00
43808;DHT22;29438;50.664;10.098;2022-10-31T06:56:39;8.50;95.00
43808;DHT22;29438;50.664;10.098;2022-10-31T06:59:07;8.70;95.00
43808;DHT22;29438;50.664;10.098;2022-10-31T07:01:33;8.70;94.90
43808;DHT22;29438;50.664;10.098;2022-10-31T07:03:58;8.70;94.80
43808;DHT22;29438;50.664;10.098;2022-10-31T07:06:24;8.80;94.80
43808;DHT22;29438;50.664;10.098;2022-10-31T07:08:49;9.00;94.80
43808;DHT22;29438;50.664;10.098;2022-10-31T07:11:15;9.10;94.70
43808;DHT22;29438;50.664;10.098;2022-10-31T07:13:41;9.30;94.60
43808;DHT22;29438;50.664;10.098;2022-10-31T07:16:07;9.50;94.60
43808;DHT22;29438;50.664;10.098;2022-10-31T07:18:33;9.60;94.40
43808;DHT22;29438;50.664;10.098;2022-10-31T07:20:59;9.80;94.30
43808;DHT22;29438;50.664;10.098;2022-10-31T07:23:24;9.90;94.10
43808;DHT22;29438;50.664;10.098;2022-10-31T07:25:58;9.90;93.90
43808;DHT22;29438;50.664;10.098;2022-10-31T07:28:25;10.20;93.70
43808;DHT22;29438;50.664;10.098;2022-10-31T07:30:55;10.40;93.50
43808;DHT22;29438;50.664;10.098;2022-10-31T07:33:22;10.50;93.00
43808;DHT22;29438;50.664;10.098;2022-10-31T07:35:48;10.70;92.60
43808;DHT22;29438;50.664;10.098;2022-10-31T07:38:14;10.90;92.00
43808;DHT22;29438;50.664;10.098;2022-10-31T07:40:41;11.20;91.50
43808;DHT22;29438;50.664;10.098;2022-10-31T07:43:07;11.40;90.50
43808;DHT22;29438;50.664;10.098;2022-10-31T07:45:33;11.70;89.70
43808;DHT22;29438;50.664;10.098;2022-10-31T07:47:58;11.90;88.80
43808;DHT22;29438;50.664;10.098;2022-10-31T07:50:29;12.20;87.80
43808;DHT22;29438;50.664;10.098;2022-10-31T07:53:02;12.30;86.90
43808;DHT22;29438;50.664;10.098;2022-10-31T07:55:29;12.40;86.20
43808;DHT22;29438;50.664;10.098;2022-10-31T07:58:08;12.70;85.40
43808;DHT22;29438;50.664;10.098;2022-10-31T08:00:36;13.00;84.40
43808;DHT22;29438;50.664;10.098;2022-10-31T08:03:04;13.40;83.70
43808;DHT22;29438;50.664;10.098;2022-10-31T08:05:31;13.90;82.80
43808;DHT22;29438;50.664;10.098;2022-10-31T08:07:57;14.20;81.50
43808;DHT22;29438;50.664;10.098;2022-10-31T08:10:23;14.60;80.60
43808;DHT22;29438;50.664;10.098;2022-10-31T08:13:00;14.60;79.50
43808;DHT22;29438;50.664;10.098;2022-10-31T08:15:26;14.50;79.60
43808;DHT22;29438;50.664;10.098;2022-10-31T08:17:52;14.70;79.90
43808;DHT22;29438;50.664;10.098;2022-10-31T08:20:18;15.30;78.30
43808;DHT22;29438;50.664;10.098;2022-10-31T08:22:55;15.80;77.70
43808;DHT22;29438;50.664;10.098;2022-10-31T08:25:21;16.30;75.30
43808;DHT22;29438;50.664;10.098;2022-10-31T08:27:55;16.30;73.70
43808;DHT22;29438;50.664;10.098;2022-10-31T08:30:23;16.20;74.00
43808;DHT22;29438;50.664;10.098;2022-10-31T08:35:28;17.20;72.50
43808;DHT22;29438;50.664;10.098;2022-10-31T08:37:55;17.10;71.40
43808;DHT22;29438;50.664;10.098;2022-10-31T08:40:21;17.00;72.40
43808;DHT22;29438;50.664;10.098;2022-10-31T08:42:47;17.30;71.60
43808;DHT22;29438;50.664;10.098;2022-10-31T08:45:12;17.80;70.40
43808;DHT22;29438;50.664;10.098;2022-10-31T08:47:38;18.20;68.90
43808;DHT22;29438;50.664;10.098;2022-10-31T08:50:04;18.90;67.50
43808;DHT22;29438;50.664;10.098;2022-10-31T08:52:29;19.70;65.30
43808;DHT22;29438;50.664;10.098;2022-10-31T08:54:57;20.20;61.70
43808;DHT22;29438;50.664;10.098;2022-10-31T08:57:23;20.30;60.30
43808;DHT22;29438;50.664;10.098;2022-10-31T08:59:48;18.80;62.50
43808;DHT22;29438;50.664;10.098;2022-10-31T09:02:14;19.10;64.70
43808;DHT22;29438;50.664;10.098;2022-10-31T09:04:39;19.70;62.60
43808;DHT22;29438;50.664;10.098;2022-10-31T09:07:05;19.90;61.00
43808;DHT22;29438;50.664;10.098;2022-10-31T09:09:30;20.10;60.70
43808;DHT22;29438;50.664;10.098;2022-10-31T09:11:56;19.30;62.70
43808;DHT22;29438;50.664;10.098;2022-10-31T09:14:21;18.90;63.70
43808;DHT22;29438;50.664;10.098;2022-10-31T09:16:47;19.00;64.10
43808;DHT22;29438;50.664;10.098;2022-10-31T09:19:13;19.20;63.50
43808;DHT22;29438;50.664;10.098;2022-10-31T09:21:38;18.80;63.90
43808;DHT22;29438;50.664;10.098;2022-10-31T09:24:04;19.00;63.80
43808;DHT22;29438;50.664;10.098;2022-10-31T09:26:30;19.10;63.60
43808;DHT22;29438;50.664;10.098;2022-10-31T09:28:55;19.00;63.60
43808;DHT22;29438;50.664;10.098;2022-10-31T09:31:22;18.90;64.40
43808;DHT22;29438;50.664;10.098;2022-10-31T09:33:48;18.90;64.40
43808;DHT22;29438;50.664;10.098;2022-10-31T09:36:14;19.00;64.30
43808;DHT22;29438;50.664;10.098;2022-10-31T09:38:39;19.50;64.20
43808;DHT22;29438;50.664;10.098;2022-10-31T09:46:22;19.00;64.20
43808;DHT22;29438;50.664;10.098;2022-10-31T09:51:24;19.00;66.00
43808;DHT22;29438;50.664;10.098;2022-10-31T09:54:25;18.80;64.50
43808;DHT22;29438;50.664;10.098;2022-10-31T09:56:43;19.10;65.40
43808;DHT22;29438;50.664;10.098;2022-10-31T09:59:25;19.50;63.30
43808;DHT22;29438;50.664;10.098;2022-10-31T10:01:57;19.20;64.70
43808;DHT22;29438;50.664;10.098;2022-10-31T10:04:50;19.40;64.70
43808;DHT22;29438;50.664;10.098;2022-10-31T10:07:22;19.80;61.30
43808;DHT22;29438;50.664;10.098;2022-10-31T10:09:52;20.30;60.20
43808;DHT22;29438;50.664;10.098;2022-10-31T10:15:25;20.20;60.20
43808;DHT22;29438;50.664;10.098;2022-10-31T10:18:03;19.80;60.80
43808;DHT22;29438;50.664;10.098;2022-10-31T10:26:53;19.70;60.20
43808;DHT22;29438;50.664;10.098;2022-10-31T10:32:01;20.20;56.90
43808;DHT22;29438;50.664;10.098;2022-10-31T10:34:34;20.50;56.20
43808;DHT22;29438;50.664;10.098;2022-10-31T10:39:48;20.70;54.90
43808;DHT22;29438;50.664;10.098;2022-10-31T10:42:16;20.50;56.90
43808;DHT22;29438;50.664;10.098;2022-10-31T10:45:13;20.80;56.60
43808;DHT22;29438;50.664;10.098;2022-10-31T10:48:12;21.20;56.20
43808;DHT22;29438;50.664;10.098;2022-10-31T10:50:44;21.30;56.60
43808;DHT22;29438;50.664;10.098;2022-10-31T10:56:08;21.30;56.70
43808;DHT22;29438;50.664;10.098;2022-10-31T10:58:37;20.90;56.00
43808;DHT22;29438;50.664;10.098;2022-10-31T11:01:13;20.70;57.40
43808;DHT22;29438;50.664;10.098;2022-10-31T11:03:40;20.80;58.10
43808;DHT22;29438;50.664;10.098;2022-10-31T11:06:20;20.70;56.80
43808;DHT22;29438;50.664;10.098;2022-10-31T11:08:50;20.20;59.10
43808;DHT22;29438;50.664;10.098;2022-10-31T11:11:29;19.90;59.70
43808;DHT22;29438;50.664;10.098;2022-10-31T11:14:05;20.00;60.10
43808;DHT22;29438;50.664;10.098;2022-10-31T11:16:40;19.70;59.90
43808;DHT22;29438;50.664;10.098;2022-10-31T11:19:17;19.50;60.50
43808;DHT22;29438;50.664;10.098;2022-10-31T11:21:44;19.40;62.20
43808;DHT22;29438;50.664;10.098;2022-10-31T11:26:37;19.60;63.20
43808;DHT22;29438;50.664;10.098;2022-10-31T11:29:04;19.70;63.90
43808;DHT22;29438;50.664;10.098;2022-10-31T11:31:31;19.50;62.90
43808;DHT22;29438;50.664;10.098;2022-10-31T11:34:00;19.50;63.30
43808;DHT22;29438;50.664;10.098;2022-10-31T11:36:37;19.60;62.70
43808;DHT22;29438;50.664;10.098;2022-10-31T11:39:05;19.50;62.90
43808;DHT22;29438;50.664;10.098;2022-10-31T11:41:37;19.50;61.70
43808;DHT22;29438;50.664;10.098;2022-10-31T11:44:14;19.40;62.20
43808;DHT22;29438;50.664;10.098;2022-10-31T11:46:44;19.20;62.60
43808;DHT22;29438;50.664;10.098;2022-10-31T11:49:37;19.60;62.30
43808;DHT22;29438;50.664;10.098;2022-10-31T11:52:20;19.60;61.30
43808;DHT22;29438;50.664;10.098;2022-10-31T11:55:13;19.50;62.30
43808;DHT22;29438;50.664;10.098;2022-10-31T11:57:48;19.40;61.40
43808;DHT22;29438;50.664;10.098;2022-10-31T12:00:27;19.30;61.30
43808;DHT22;29438;50.664;10.098;2022-10-31T12:05:45;19.20;61.60
43808;DHT22;29438;50.664;10.098;2022-10-31T12:08:13;19.20;61.90
43808;DHT22;29438;50.664;10.098;2022-10-31T12:13:37;19.30;62.80
43808;DHT22;29438;50.664;10.098;2022-10-31T12:16:12;19.30;62.90
43808;DHT22;29438;50.664;10.098;2022-10-31T12:18:55;19.30;62.80
43808;DHT22;29438;50.664;10.098;2022-10-31T12:45:58;19.30;64.40
43808;DHT22;29438;50.664;10.098;2022-10-31T12:56:35;19.00;64.90
43808;DHT22;29438;50.664;10.098;2022-10-31T12:59:23;19.00;65.00
43808;DHT22;29438;50.664;10.098;2022-10-31T13:02:02;19.00;65.60
43808;DHT22;29438;50.664;10.098;2022-10-31T13:05:04;19.10;65.80
43808;DHT22;29438;50.664;10.098;2022-10-31T13:07:41;19.10;66.20
43808;DHT22;29438;50.664;10.098;2022-10-31T13:10:26;19.20;66.30
43808;DHT22;29438;50.664;10.098;2022-10-31T13:12:58;19.00;66.60
43808;DHT22;29438;50.664;10.098;2022-10-31T13:15:28;18.90;65.70
43808;DHT22;29438;50.664;10.098;2022-10-31T13:17:59;18.90;66.80
43808;DHT22;29438;50.664;10.098;2022-10-31T13:20:33;18.80;66.50
43808;DHT22;29438;50.664;10.098;2022-10-31T13:25:55;18.70;67.40
43808;DHT22;29438;50.664;10.098;2022-10-31T13:30:48;18.60;67.10
43808;DHT22;29438;50.664;10.098;2022-10-31T13:33:17;18.50;67.50
43808;DHT22;29438;50.664;10.098;2022-10-31T13:36:10;18.50;68.00
43808;DHT22;29438;50.664;10.098;2022-10-31T13:38:48;18.40;68.20
43808;DHT22;29438;50.664;10.098;2022-10-31T13:41:46;18.30;67.80
43808;DHT22;29438;50.664;10.098;2022-10-31T13:44:26;18.30;68.50
43808;DHT22;29438;50.664;10.098;2022-10-31T13:46:54;18.40;68.60
43808;DHT22;29438;50.664;10.098;2022-10-31T13:51:49;18.20;67.50
43808;DHT22;29438;50.664;10.098;2022-10-31T13:54:23;18.10;67.60
43808;DHT22;29438;50.664;10.098;2022-10-31T13:56:52;18.20;67.90
43808;DHT22;29438;50.664;10.098;2022-10-31T13:59:23;18.00;67.70
43808;DHT22;29438;50.664;10.098;2022-10-31T14:01:55;18.00;68.40
43808;DHT22;29438;50.664;10.098;2022-10-31T14:04:38;18.00;68.80
43808;DHT22;29438;50.664;10.098;2022-10-31T14:07:11;18.00;69.00
43808;DHT22;29438;50.664;10.098;2022-10-31T14:14:50;17.80;68.70
43808;DHT22;29438;50.664;10.098;2022-10-31T14:17:19;17.80;68.90
43808;DHT22;29438;50.664;10.098;2022-10-31T14:22:39;17.70;69.20
43808;DHT22;29438;50.664;10.098;2022-10-31T14:25:24;17.60;70.20
43808;DHT22;29438;50.664;10.098;2022-10-31T14:27:50;17.40;70.60
43808;DHT22;29438;50.664;10.098;2022-10-31T14:30:20;17.40;70.70
43808;DHT22;29438;50.664;10.098;2022-10-31T14:33:16;17.30;70.70
43808;DHT22;29438;50.664;10.098;2022-10-31T14:35:54;17.20;71.10
43808;DHT22;29438;50.664;10.098;2022-10-31T14:44:49;17.10;71.30
43808;DHT22;29438;50.664;10.098;2022-10-31T14:47:32;17.00;71.70
43808;DHT22;29438;50.664;10.098;2022-10-31T14:52:48;16.90;72.60
43808;DHT22;29438;50.664;10.098;2022-10-31T14:55:15;16.70;74.40
43808;DHT22;29438;50.664;10.098;2022-10-31T14:57:49;16.70;75.30
43808;DHT22;29438;50.664;10.098;2022-10-31T15:00:20;16.60;75.00
43808;DHT22;29438;50.664;10.098;2022-10-31T15:05:16;16.40;74.50
43808;DHT22;29438;50.664;10.098;2022-10-31T15:07:52;16.40;74.80
43808;DHT22;29438;50.664;10.098;2022-10-31T15:10:27;16.30;74.40
43808;DHT22;29438;50.664;10.098;2022-10-31T15:12:55;16.30;74.70
43808;DHT22;29438;50.664;10.098;2022-10-31T15:15:23;16.20;74.80
43808;DHT22;29438;50.664;10.098;2022-10-31T15:17:58;16.20;75.30
43808;DHT22;29438;50.664;10.098;2022-10-31T15:20:29;16.10;75.70
43808;DHT22;29438;50.664;10.098;2022-10-31T15:22:57;16.00;76.00
43808;DHT22;29438;50.664;10.098;2022-10-31T15:25:27;15.90;76.20
43808;DHT22;29438;50.664;10.098;2022-10-31T15:27:53;15.90;76.00
43808;DHT22;29438;50.664;10.098;2022-10-31T15:30:24;15.80;76.40
43808;DHT22;29438;50.664;10.098;2022-10-31T15:32:50;15.80;76.60
43808;DHT22;29438;50.664;10.098;2022-10-31T15:35:25;15.70;76.40
43808;DHT22;29438;50.664;10.098;2022-10-31T15:37:52;15.60;76.60
43808;DHT22;29438;50.664;10.098;2022-10-31T15:40:20;15.50;77.00
43808;DHT22;29438;50.664;10.098;2022-10-31T15:45:21;15.20;78.80
43808;DHT22;29438;50.664;10.098;2022-10-31T15:48:03;15.10;79.40
43808;DHT22;29438;50.664;10.098;2022-10-31T15:50:37;15.00;80.50
43808;DHT22;29438;50.664;10.098;2022-10-31T15:53:05;14.80;81.40
43808;DHT22;29438;50.664;10.098;2022-10-31T15:55:36;14.70;82.00
43808;DHT22;29438;50.664;10.098;2022-10-31T15:58:11;14.60;82.20
43808;DHT22;29438;50.664;10.098;2022-10-31T16:00:37;14.50;82.60
43808;DHT22;29438;50.664;10.098;2022-10-31T16:05:45;14.20;83.50
43808;DHT22;29438;50.664;10.098;2022-10-31T16:08:33;14.20;83.70
43808;DHT22;29438;50.664;10.098;2022-10-31T16:13:41;13.90;84.20
43808;DHT22;29438;50.664;10.098;2022-10-31T16:16:15;13.80;84.40
43808;DHT22;29438;50.664;10.098;2022-10-31T16:18:42;13.70;84.60
43808;DHT22;29438;50.664;10.098;2022-10-31T16:21:08;13.60;85.00
43808;DHT22;29438;50.664;10.098;2022-10-31T16:23:36;13.50;85.30
43808;DHT22;29438;50.664;10.098;2022-10-31T16:26:07;13.40;85.60
43808;DHT22;29438;50.664;10.098;2022-10-31T16:28:33;13.40;85.90
43808;DHT22;29438;50.664;10.098;2022-10-31T16:30:59;13.40;86.20
43808;DHT22;29438;50.664;10.098;2022-10-31T16:33:34;13.40;86.30
43808;DHT22;29438;50.664;10.098;2022-10-31T16:38:56;13.30;86.40
43808;DHT22;29438;50.664;10.098;2022-10-31T16:41:23;13.20;86.20
43808;DHT22;29438;50.664;10.098;2022-10-31T16:43:48;13.20;86.20
43808;DHT22;29438;50.664;10.098;2022-10-31T16:46:20;13.30;86.20
43808;DHT22;29438;50.664;10.098;2022-10-31T16:48:46;13.20;86.10
43808;DHT22;29438;50.664;10.098;2022-10-31T16:51:12;13.20;86.30
43808;DHT22;29438;50.664;10.098;2022-10-31T16:53:37;13.20;86.40
43808;DHT22;29438;50.664;10.098;2022-10-31T16:56:03;13.20;86.60
43808;DHT22;29438;50.664;10.098;2022-10-31T16:58:31;13.10;86.60
43808;DHT22;29438;50.664;10.098;2022-10-31T17:00:59;13.00;86.60
43808;DHT22;29438;50.664;10.098;2022-10-31T17:03:25;13.00;86.70
43808;DHT22;29438;50.664;10.098;2022-10-31T17:05:50;12.90;86.70
43808;DHT22;29438;50.664;10.098;2022-10-31T17:08:17;12.70;86.80
43808;DHT22;29438;50.664;10.098;2022-10-31T17:10:44;12.60;87.00
43808;DHT22;29438;50.664;10.098;2022-10-31T17:13:17;12.50;87.50
43808;DHT22;29438;50.664;10.098;2022-10-31T17:15:45;12.40;87.80
43808;DHT22;29438;50.664;10.098;2022-10-31T17:18:13;12.30;88.10
43808;DHT22;29438;50.664;10.098;2022-10-31T17:20:39;12.30;88.50
43808;DHT22;29438;50.664;10.098;2022-10-31T17:23:05;12.30;88.60
43808;DHT22;29438;50.664;10.098;2022-10-31T17:25:31;12.30;88.70
43808;DHT22;29438;50.664;10.098;2022-10-31T17:27:56;12.30;88.70
43808;DHT22;29438;50.664;10.098;2022-10-31T17:30:22;12.30;88.70
43808;DHT22;29438;50.664;10.098;2022-10-31T17:32:48;12.20;88.70
43808;DHT22;29438;50.664;10.098;2022-10-31T17:35:15;12.20;88.70
43808;DHT22;29438;50.664;10.098;2022-10-31T17:37:42;12.20;88.70
43808;DHT22;29438;50.664;10.098;2022-10-31T17:40:13;12.20;88.80
43808;DHT22;29438;50.664;10.098;2022-10-31T17:42:39;12.10;88.80
43808;DHT22;29438;50.664;10.098;2022-10-31T17:45:06;12.00;88.90
43808;DHT22;29438;50.664;10.098;2022-10-31T17:47:32;12.00;89.00
43808;DHT22;29438;50.664;10.098;2022-10-31T17:49:58;11.90;89.20
43808;DHT22;29438;50.664;10.098;2022-10-31T17:52:24;11.90;89.30